createdAt,value
2018-12-12T00:02:01.823Z,2.79
2018-12-12T00:04:35.255Z,2.86
2018-12-12T00:07:09.371Z,2.77
2018-12-12T00:09:42.578Z,2.81
2018-12-12T00:12:13.685Z,2.83
2018-12-12T00:14:44.931Z,2.73
2018-12-12T00:17:16.279Z,2.77
2018-12-12T00:19:50.364Z,2.82
2018-12-12T00:22:32.012Z,2.79
2018-12-12T00:25:05.082Z,2.87
2018-12-12T00:27:36.222Z,2.87
2018-12-12T00:30:10.393Z,2.93
2018-12-12T00:32:55.614Z,2.87
2018-12-12T00:35:44.951Z,2.86
2018-12-12T00:38:17.258Z,2.82
2018-12-12T00:40:49.122Z,2.86
2018-12-12T00:43:22.204Z,2.90
2018-12-12T00:45:54.867Z,2.88
2018-12-12T00:48:28.312Z,2.80
2018-12-12T00:50:58.978Z,2.84
2018-12-12T00:53:36.515Z,2.82
2018-12-12T00:56:09.098Z,2.85
2018-12-12T00:58:41.574Z,2.72
2018-12-12T01:01:13.118Z,2.76
2018-12-12T01:03:46.153Z,2.78
2018-12-12T01:06:17.339Z,2.78
2018-12-12T01:08:48.804Z,2.80
2018-12-12T01:11:27.191Z,2.83
2018-12-12T01:14:13.780Z,2.79
2018-12-12T01:16:44.669Z,2.77
2018-12-12T01:19:15.230Z,2.77
2018-12-12T01:21:46.354Z,2.75
2018-12-12T01:24:16.855Z,2.81
2018-12-12T01:26:47.915Z,2.80
2018-12-12T01:29:18.534Z,2.78
2018-12-12T01:31:49.207Z,2.89
2018-12-12T01:34:19.938Z,2.82
2018-12-12T01:36:51.005Z,2.88
2018-12-12T01:39:27.442Z,2.86
2018-12-12T01:42:01.129Z,2.92
2018-12-12T01:44:33.758Z,3.09
2018-12-12T01:47:07.332Z,2.99
2018-12-12T01:49:37.962Z,2.98
2018-12-12T01:52:11.506Z,3.03
2018-12-12T01:54:42.131Z,3.03
2018-12-12T01:57:15.281Z,3.14
2018-12-12T01:59:46.573Z,3.14
2018-12-12T02:02:19.513Z,3.06
2018-12-12T02:04:52.268Z,3.20
2018-12-12T02:07:24.759Z,3.20
2018-12-12T02:09:55.834Z,3.15
2018-12-12T02:12:31.128Z,3.08
2018-12-12T02:15:07.746Z,3.11
2018-12-12T02:17:41.983Z,3.03
2018-12-12T02:23:03.698Z,2.99
2018-12-12T02:25:42.708Z,3.00
2018-12-12T02:28:14.470Z,2.99
2018-12-12T02:30:46.343Z,3.01
2018-12-12T02:33:18.600Z,2.90
2018-12-12T02:35:49.553Z,2.88
2018-12-12T02:38:20.655Z,2.81
2018-12-12T02:40:51.247Z,2.90
2018-12-12T02:43:22.275Z,2.98
2018-12-12T02:45:55.200Z,1.78
2018-12-12T02:48:26.824Z,2.91
2018-12-12T02:50:59.838Z,2.91
2018-12-12T02:53:31.454Z,2.94
2018-12-12T02:56:04.153Z,2.84
2018-12-12T02:58:40.261Z,2.85
2018-12-12T03:01:17.699Z,2.84
2018-12-12T03:03:48.613Z,2.93
2018-12-12T03:06:22.505Z,3.18
2018-12-12T03:08:57.640Z,3.02
2018-12-12T03:11:29.279Z,2.97
2018-12-12T03:14:02.727Z,3.06
2018-12-12T03:16:36.735Z,2.97
2018-12-12T03:19:08.583Z,3.03
2018-12-12T03:21:42.472Z,2.86
2018-12-12T03:24:13.858Z,2.99
2018-12-12T03:26:45.986Z,2.86
2018-12-12T03:29:17.673Z,2.85
2018-12-12T03:31:48.710Z,2.86
2018-12-12T03:34:19.851Z,2.81
2018-12-12T03:36:50.710Z,2.75
2018-12-12T03:39:24.953Z,2.82
2018-12-12T03:41:58.515Z,2.79
2018-12-12T03:44:32.502Z,2.78
2018-12-12T03:47:05.121Z,2.80
2018-12-12T03:49:35.839Z,2.73
2018-12-12T03:52:08.304Z,2.81
2018-12-12T03:54:40.781Z,2.83
2018-12-12T03:57:11.466Z,2.85
2018-12-12T03:59:42.034Z,2.72
2018-12-12T04:02:14.968Z,2.70
2018-12-12T04:04:45.977Z,2.61
2018-12-12T04:07:18.699Z,2.74
2018-12-12T04:09:50.823Z,2.83
2018-12-12T04:12:22.977Z,2.93
2018-12-12T04:14:55.061Z,3.01
2018-12-12T04:17:28.021Z,2.95
2018-12-12T04:20:00.732Z,2.87
2018-12-12T04:22:32.663Z,2.85
2018-12-12T04:25:07.822Z,2.84
2018-12-12T04:27:38.897Z,2.92
2018-12-12T04:30:09.887Z,2.94
2018-12-12T04:32:40.931Z,2.91
2018-12-12T04:38:07.715Z,2.86
2018-12-12T04:40:43.724Z,2.82
2018-12-12T04:43:15.152Z,2.82
2018-12-12T04:46:04.826Z,2.92
2018-12-12T04:48:35.938Z,2.89
2018-12-12T04:51:08.247Z,2.87
2018-12-12T04:53:40.274Z,2.93
2018-12-12T04:56:11.475Z,2.90
2018-12-12T04:58:42.542Z,2.91
2018-12-12T05:01:13.054Z,2.89
2018-12-12T05:03:43.935Z,2.84
2018-12-12T05:06:26.144Z,2.94
2018-12-12T05:08:57.472Z,2.88
2018-12-12T05:11:30.296Z,2.88
2018-12-12T05:14:00.814Z,2.78
2018-12-12T05:16:31.662Z,2.74
2018-12-12T05:19:02.225Z,2.77
2018-12-12T05:21:33.021Z,2.75
2018-12-12T05:24:06.265Z,2.69
2018-12-12T05:26:37.750Z,2.68
2018-12-12T05:29:09.738Z,2.65
2018-12-12T05:31:43.840Z,2.68
2018-12-12T05:34:17.079Z,2.55
2018-12-12T05:36:53.389Z,2.72
2018-12-12T05:39:25.730Z,2.62
2018-12-12T05:41:56.794Z,2.38
2018-12-12T05:44:35.145Z,2.50
2018-12-12T05:47:06.874Z,2.46
2018-12-12T05:49:40.698Z,2.49
2018-12-12T05:52:11.454Z,2.46
2018-12-12T05:54:43.075Z,2.50
2018-12-12T05:57:15.129Z,2.56
2018-12-12T05:59:46.250Z,2.52
2018-12-12T06:02:19.657Z,2.58
2018-12-12T06:04:50.571Z,2.55
2018-12-12T06:07:21.989Z,2.60
2018-12-12T06:09:58.238Z,2.59
2018-12-12T06:12:31.542Z,2.66
2018-12-12T06:15:03.009Z,2.65
2018-12-12T06:17:33.666Z,2.59
2018-12-12T06:20:07.962Z,2.54
2018-12-12T06:22:40.944Z,2.39
2018-12-12T06:25:32.512Z,2.45
2018-12-12T06:28:04.724Z,2.46
2018-12-12T06:30:44.699Z,2.42
2018-12-12T06:33:15.713Z,2.34
2018-12-12T06:36:00.643Z,2.29
2018-12-12T06:38:31.423Z,2.36
2018-12-12T06:41:02.963Z,2.35
2018-12-12T06:43:35.348Z,2.41
2018-12-12T06:46:08.042Z,2.36
2018-12-12T06:48:44.466Z,2.42
2018-12-12T06:51:15.683Z,2.45
2018-12-12T06:53:46.674Z,2.50
2018-12-12T06:56:18.746Z,2.39
2018-12-12T06:58:49.905Z,2.47
2018-12-12T07:01:22.733Z,2.60
2018-12-12T07:03:54.520Z,2.47
2018-12-12T07:06:27.571Z,2.40
2018-12-12T07:08:58.882Z,2.35
2018-12-12T07:11:31.889Z,2.42
2018-12-12T07:14:03.218Z,2.36
2018-12-12T07:16:34.233Z,2.46
2018-12-12T07:19:05.532Z,2.31
2018-12-12T07:21:37.562Z,2.31
2018-12-12T07:24:10.202Z,2.24
2018-12-12T07:26:41.707Z,2.25
2018-12-12T07:29:12.695Z,2.16
2018-12-12T07:31:43.347Z,2.12
2018-12-12T07:34:22.474Z,2.11
2018-12-12T07:36:53.629Z,2.08
2018-12-12T07:39:24.194Z,2.06
2018-12-12T07:41:54.699Z,2.06
2018-12-12T07:44:25.851Z,1.95
2018-12-12T07:46:57.038Z,1.99
2018-12-12T07:49:30.431Z,1.95
2018-12-12T07:52:02.841Z,1.89
2018-12-12T07:54:36.263Z,1.81
2018-12-12T07:57:08.114Z,1.69
2018-12-12T07:59:42.802Z,1.71
2018-12-12T08:02:15.238Z,1.84
2018-12-12T08:04:46.059Z,1.79
2018-12-12T08:07:16.736Z,1.72
2018-12-12T08:09:47.455Z,1.77
2018-12-12T08:12:18.584Z,1.89
2018-12-12T08:14:54.988Z,1.79
2018-12-12T08:17:27.790Z,1.91
2018-12-12T08:20:02.547Z,1.95
2018-12-12T08:22:37.650Z,1.94
2018-12-12T08:25:14.256Z,2.04
2018-12-12T08:27:52.791Z,2.05
2018-12-12T08:30:38.425Z,1.99
2018-12-12T08:33:12.875Z,2.03
2018-12-12T08:35:43.398Z,2.26
2018-12-12T08:38:15.949Z,2.22
2018-12-12T08:40:48.958Z,2.30
2018-12-12T08:43:20.555Z,2.13
2018-12-12T08:45:54.739Z,2.12
2018-12-12T08:48:26.830Z,2.04
2018-12-12T08:50:57.991Z,2.05
2018-12-12T08:53:31.009Z,2.03
2018-12-12T08:56:03.477Z,2.07
2018-12-12T08:58:43.695Z,2.12
2018-12-12T09:01:15.441Z,2.21
2018-12-12T09:03:46.902Z,2.27
2018-12-12T09:06:19.400Z,2.34
2018-12-12T09:08:50.253Z,2.34
2018-12-12T09:11:24.898Z,2.39
2018-12-12T09:14:04.024Z,2.45
2018-12-12T09:16:34.616Z,2.63
2018-12-12T09:19:05.438Z,2.68
2018-12-12T09:21:36.699Z,2.80
2018-12-12T09:24:07.418Z,2.80
2018-12-12T09:26:38.241Z,3.07
2018-12-12T09:29:11.521Z,3.18
2018-12-12T09:31:42.092Z,3.50
2018-12-12T09:34:13.211Z,3.60
2018-12-12T09:36:43.886Z,3.28
2018-12-12T09:39:14.683Z,3.16
2018-12-12T09:41:47.894Z,3.03
2018-12-12T09:44:18.790Z,3.00
2018-12-12T09:46:50.501Z,3.07
2018-12-12T09:49:23.294Z,3.04
2018-12-12T09:51:56.702Z,3.04
2018-12-12T09:54:27.299Z,3.07
2018-12-12T09:57:01.595Z,3.19
2018-12-12T09:59:34.486Z,3.30
2018-12-12T10:02:05.650Z,3.14
2018-12-12T10:04:38.632Z,3.14
2018-12-12T10:07:09.892Z,3.14
2018-12-12T10:09:40.704Z,3.28
2018-12-12T10:12:13.887Z,3.29
2018-12-12T10:14:49.431Z,3.19
2018-12-12T10:17:21.263Z,3.33
2018-12-12T10:19:52.332Z,3.43
2018-12-12T10:22:22.967Z,3.78
2018-12-12T10:24:56.253Z,3.89
2018-12-12T10:27:27.228Z,3.59
2018-12-12T10:29:58.306Z,3.85
2018-12-12T10:32:38.416Z,3.70
2018-12-12T10:35:11.294Z,3.61
2018-12-12T10:37:43.169Z,4.05
2018-12-12T10:40:28.203Z,4.36
2018-12-12T10:43:06.370Z,4.58
2018-12-12T10:45:38.525Z,4.96
2018-12-12T10:48:11.436Z,4.80
2018-12-12T10:50:49.041Z,5.01
2018-12-12T10:53:19.938Z,4.83
2018-12-12T10:55:55.347Z,4.66
2018-12-12T10:58:28.504Z,4.39
2018-12-12T11:01:05.965Z,4.11
2018-12-12T11:03:44.263Z,4.07
2018-12-12T11:06:16.184Z,4.20
2018-12-12T11:08:46.750Z,4.28
2018-12-12T11:11:20.141Z,3.99
2018-12-12T11:13:50.818Z,3.99
2018-12-12T11:16:26.906Z,3.97
2018-12-12T11:19:01.154Z,4.03
2018-12-12T11:21:34.718Z,3.92
2018-12-12T11:24:07.827Z,3.84
2018-12-12T11:26:39.150Z,3.74
2018-12-12T11:29:10.280Z,3.58
2018-12-12T11:31:43.889Z,3.65
2018-12-12T11:34:18.102Z,3.82
2018-12-12T11:36:50.781Z,3.86
2018-12-12T11:39:21.772Z,4.04
2018-12-12T11:41:56.476Z,4.10
2018-12-12T11:44:30.630Z,4.21
2018-12-12T11:47:06.599Z,4.14
2018-12-12T11:49:39.877Z,4.20
2018-12-12T11:52:13.683Z,4.28
2018-12-12T11:54:44.211Z,4.14
2018-12-12T11:57:15.789Z,4.22
2018-12-12T11:59:46.854Z,4.46
2018-12-12T12:02:19.119Z,4.43
2018-12-12T12:04:50.306Z,3.73
2018-12-12T12:07:25.994Z,3.48
2018-12-12T12:09:57.117Z,3.14
2018-12-12T12:12:30.746Z,2.96
2018-12-12T12:15:04.384Z,2.92
2018-12-12T12:17:34.991Z,3.13
2018-12-12T12:20:08.818Z,3.16
2018-12-12T12:22:42.891Z,3.32
2018-12-12T12:25:16.016Z,3.34
2018-12-12T12:28:00.877Z,3.63
2018-12-12T12:33:24.308Z,3.82
2018-12-12T12:35:56.174Z,3.67
2018-12-12T12:38:28.580Z,3.51
2018-12-12T12:40:59.408Z,3.54
2018-12-12T12:43:30.491Z,3.51
2018-12-12T12:46:04.484Z,3.51
2018-12-12T12:48:35.294Z,3.45
2018-12-12T12:51:21.727Z,3.33
2018-12-12T12:53:54.133Z,3.24
2018-12-12T12:56:25.917Z,3.39
2018-12-12T12:58:58.332Z,3.44
2018-12-12T13:01:32.127Z,3.41
2018-12-12T13:04:09.715Z,3.53
2018-12-12T13:06:42.508Z,3.44
2018-12-12T13:09:14.255Z,3.31
2018-12-12T13:11:47.295Z,3.19
2018-12-12T13:14:20.313Z,3.09
2018-12-12T13:16:53.535Z,3.14
2018-12-12T13:19:24.822Z,3.06
2018-12-12T13:21:55.860Z,3.11
2018-12-12T13:24:29.443Z,3.15
2018-12-12T13:27:02.552Z,3.07
2018-12-12T13:29:36.051Z,3.02
2018-12-12T13:32:07.811Z,3.12
2018-12-12T13:34:43.473Z,3.10
2018-12-12T13:37:14.214Z,3.17
2018-12-12T13:39:45.539Z,3.29
2018-12-12T13:42:16.290Z,3.45
2018-12-12T13:44:46.803Z,3.59
2018-12-12T13:47:17.647Z,3.63
2018-12-12T13:49:48.542Z,3.49
2018-12-12T13:52:19.636Z,3.51
2018-12-12T13:54:55.307Z,3.44
2018-12-12T13:57:26.517Z,3.41
2018-12-12T13:59:58.275Z,3.34
2018-12-12T14:02:28.885Z,3.29
2018-12-12T14:04:59.992Z,3.06
2018-12-12T14:07:32.323Z,2.91
2018-12-12T14:10:06.050Z,2.73
2018-12-12T14:12:39.731Z,2.60
2018-12-12T14:15:10.315Z,2.45
2018-12-12T14:17:41.292Z,2.45
2018-12-12T14:20:14.583Z,2.47
2018-12-12T14:23:00.781Z,2.43
2018-12-12T14:25:33.643Z,2.54
2018-12-12T14:28:21.179Z,2.53
2018-12-12T14:30:52.622Z,2.59
2018-12-12T14:33:25.589Z,2.65
2018-12-12T14:36:01.151Z,2.77
2018-12-12T14:38:33.756Z,2.84
2018-12-12T14:41:07.670Z,2.86
2018-12-12T14:43:40.969Z,2.91
2018-12-12T14:46:17.674Z,2.83
2018-12-12T14:48:48.775Z,2.89
2018-12-12T14:51:22.238Z,2.93
2018-12-12T14:53:55.964Z,3.10
2018-12-12T14:56:28.648Z,3.20
2018-12-12T14:59:02.726Z,3.19
2018-12-12T15:01:34.939Z,3.16
2018-12-12T15:04:07.855Z,2.98
2018-12-12T15:06:38.576Z,2.98
2018-12-12T15:09:10.394Z,3.14
2018-12-12T15:11:41.695Z,3.05
2018-12-12T15:14:13.643Z,3.16
2018-12-12T15:16:44.595Z,3.12
2018-12-12T15:19:16.795Z,3.21
2018-12-12T15:21:50.532Z,3.07
2018-12-12T15:24:23.840Z,3.08
2018-12-12T15:26:56.489Z,3.10
2018-12-12T15:29:30.410Z,3.32
2018-12-12T15:32:01.892Z,3.51
2018-12-12T15:34:35.209Z,3.55
2018-12-12T15:37:14.887Z,3.60
2018-12-12T15:39:45.743Z,3.93
2018-12-12T15:42:16.621Z,3.60
2018-12-12T15:44:49.302Z,3.21
2018-12-12T15:47:20.007Z,3.26
2018-12-12T15:49:51.782Z,3.39
2018-12-12T15:52:24.939Z,3.70
2018-12-12T15:55:01.966Z,3.86
2018-12-12T15:57:34.847Z,3.84
2018-12-12T16:00:06.541Z,3.87
2018-12-12T16:02:39.255Z,4.17
2018-12-12T16:05:10.966Z,4.21
2018-12-12T16:07:49.522Z,3.75
2018-12-12T16:10:37.778Z,1.85
2018-12-12T16:13:09.018Z,3.52
2018-12-12T16:15:47.363Z,3.42
2018-12-12T16:18:20.239Z,3.55
2018-12-12T16:20:53.079Z,1.12
2018-12-12T16:23:26.029Z,3.39
2018-12-12T16:26:05.197Z,3.58
2018-12-12T16:28:38.010Z,3.33
2018-12-12T16:31:11.930Z,3.46
2018-12-12T16:33:43.587Z,3.31
2018-12-12T16:36:24.031Z,2.90
2018-12-12T16:38:55.065Z,2.90
2018-12-12T16:41:26.126Z,3.00
2018-12-12T16:44:00.243Z,2.56
2018-12-12T16:46:32.741Z,2.51
2018-12-12T16:49:03.307Z,2.49
2018-12-12T16:51:37.105Z,2.56
2018-12-12T16:54:10.208Z,2.51
2018-12-12T16:56:41.126Z,2.58
2018-12-12T16:59:15.107Z,2.75
2018-12-12T17:01:48.856Z,2.67
2018-12-12T17:04:22.298Z,2.67
2018-12-12T17:06:58.325Z,2.74
2018-12-12T17:09:30.422Z,2.87
2018-12-12T17:12:02.168Z,3.03
2018-12-12T17:14:33.435Z,3.13
2018-12-12T17:17:04.453Z,2.96
2018-12-12T17:19:37.952Z,2.86
2018-12-12T17:22:11.405Z,3.02
2018-12-12T17:24:42.356Z,3.23
2018-12-12T17:27:13.074Z,3.25
2018-12-12T17:29:44.183Z,2.97
2018-12-12T17:32:17.447Z,3.17
2018-12-12T17:34:50.345Z,3.74
2018-12-12T17:37:22.241Z,3.87
2018-12-12T17:39:55.523Z,4.51
2018-12-12T17:42:29.618Z,5.10
2018-12-12T17:45:02.425Z,4.88
2018-12-12T17:47:36.575Z,5.17
2018-12-12T17:50:13.178Z,4.30
2018-12-12T17:52:44.430Z,4.17
2018-12-12T17:55:28.278Z,4.04
2018-12-12T17:58:01.886Z,4.09
2018-12-12T18:00:42.601Z,3.95
2018-12-12T18:03:14.632Z,3.97
2018-12-12T18:05:48.724Z,3.94
2018-12-12T18:08:21.731Z,3.89
2018-12-12T18:10:54.656Z,4.09
2018-12-12T18:13:26.645Z,4.32
2018-12-12T18:16:00.272Z,4.04
2018-12-12T18:18:31.356Z,3.59
2018-12-12T18:21:03.466Z,3.32
2018-12-12T18:23:38.727Z,3.24
2018-12-12T18:26:11.687Z,3.23
2018-12-12T18:28:42.241Z,3.63
2018-12-12T18:31:12.817Z,3.99
2018-12-12T18:33:43.956Z,4.57
2018-12-12T18:36:14.488Z,4.20
2018-12-12T18:38:47.552Z,3.10
2018-12-12T18:41:19.470Z,2.98
2018-12-12T18:43:53.108Z,2.64
2018-12-12T18:46:27.286Z,2.60
2018-12-12T18:49:04.998Z,2.52
2018-12-12T18:51:41.255Z,3.67
2018-12-12T18:54:11.831Z,4.12
2018-12-12T18:56:44.178Z,4.15
2018-12-12T18:59:21.139Z,4.26
2018-12-12T19:01:52.378Z,4.50
2018-12-12T19:04:26.525Z,4.30
2018-12-12T19:06:59.751Z,3.98
2018-12-12T19:09:33.882Z,4.15
2018-12-12T19:12:08.079Z,3.90
2018-12-12T19:14:44.390Z,3.85
2018-12-12T19:17:26.987Z,3.96
2018-12-12T19:19:59.806Z,3.84
2018-12-12T19:22:33.312Z,4.67
2018-12-12T19:25:13.575Z,4.54
2018-12-12T19:27:45.822Z,4.41
2018-12-12T19:30:30.045Z,4.12
2018-12-12T19:33:02.143Z,4.14
2018-12-12T19:35:34.991Z,4.16
2018-12-12T19:38:08.457Z,4.04
2018-12-12T19:40:40.085Z,4.29
2018-12-12T19:43:11.354Z,4.38
2018-12-12T19:45:44.427Z,5.05
2018-12-12T19:48:19.687Z,5.06
2018-12-12T19:50:54.820Z,4.65
2018-12-12T19:53:26.788Z,4.83
2018-12-12T19:56:04.549Z,4.71
2018-12-12T19:58:36.182Z,5.42
2018-12-12T20:01:10.257Z,5.82
2018-12-12T20:03:43.189Z,6.07
2018-12-12T20:06:14.853Z,6.55
2018-12-12T20:08:52.892Z,6.77
2018-12-12T20:11:24.512Z,6.84
2018-12-12T20:14:00.446Z,7.06
2018-12-12T20:16:32.127Z,7.29
2018-12-12T20:19:05.295Z,6.47
2018-12-12T20:21:41.043Z,5.69
2018-12-12T20:24:11.873Z,5.77
2018-12-12T20:26:42.519Z,4.84
2018-12-12T20:29:14.784Z,4.47
2018-12-12T20:31:51.967Z,4.64
2018-12-12T20:34:23.061Z,4.70
2018-12-12T20:36:54.650Z,5.02
2018-12-12T20:39:27.435Z,5.31
2018-12-12T20:41:59.307Z,5.21
2018-12-12T20:44:31.055Z,5.13
2018-12-12T20:47:02.501Z,4.30
2018-12-12T20:49:33.296Z,3.76
2018-12-12T20:52:04.837Z,3.96
2018-12-12T20:54:37.856Z,4.06
2018-12-12T20:57:11.317Z,4.24
2018-12-12T20:59:45.895Z,4.74
2018-12-12T21:02:18.296Z,4.68
2018-12-12T21:04:52.398Z,5.01
2018-12-12T21:07:23.319Z,5.31
2018-12-12T21:09:54.214Z,4.94
2018-12-12T21:12:30.353Z,4.68
2018-12-12T21:15:02.673Z,4.67
2018-12-12T21:17:35.458Z,4.70
2018-12-12T21:20:10.595Z,4.77
2018-12-12T21:22:49.339Z,5.03
2018-12-12T21:25:29.232Z,4.49
2018-12-12T21:28:14.699Z,4.51
2018-12-12T21:30:50.607Z,4.74
2018-12-12T21:33:21.428Z,4.00
2018-12-12T21:36:00.727Z,3.93
2018-12-12T21:38:30.957Z,3.89
2018-12-12T21:41:02.690Z,3.94
2018-12-12T21:43:36.373Z,3.59
2018-12-12T21:46:09.653Z,3.49
2018-12-12T21:48:42.567Z,3.53
2018-12-12T21:51:13.249Z,3.50
2018-12-12T21:53:44.235Z,3.53
2018-12-12T21:56:17.520Z,3.64
2018-12-12T21:58:50.991Z,3.43
2018-12-12T22:01:25.262Z,3.52
2018-12-12T22:03:58.510Z,3.20
2018-12-12T22:06:29.887Z,2.86
2018-12-12T22:09:00.778Z,3.19
2018-12-12T22:11:32.408Z,2.80
2018-12-12T22:14:20.311Z,2.97
2018-12-12T22:16:53.558Z,3.22
2018-12-12T22:19:27.909Z,3.14
2018-12-12T22:21:58.912Z,2.92
2018-12-12T22:24:29.598Z,2.64
2018-12-12T22:27:03.519Z,2.60
2018-12-12T22:29:37.113Z,2.67
2018-12-12T22:32:10.740Z,2.68
2018-12-12T22:34:43.711Z,2.74
2018-12-12T22:37:17.046Z,3.15
2018-12-12T22:39:47.823Z,2.88
2018-12-12T22:42:18.668Z,2.75
2018-12-12T22:44:49.396Z,2.68
2018-12-12T22:47:20.046Z,2.61
2018-12-12T22:49:50.919Z,2.59
2018-12-12T22:52:23.886Z,2.95
2018-12-12T22:54:54.586Z,3.16
2018-12-12T22:57:25.843Z,3.69
2018-12-12T22:59:58.663Z,3.66
2018-12-12T23:02:30.628Z,3.38
2018-12-12T23:05:04.213Z,3.08
2018-12-12T23:07:39.958Z,2.77
2018-12-12T23:10:10.790Z,2.53
2018-12-12T23:12:41.816Z,2.40
2018-12-12T23:15:13.534Z,2.48
2018-12-12T23:17:44.842Z,2.33
2018-12-12T23:20:16.630Z,2.54
2018-12-12T23:22:48.043Z,2.47
2018-12-12T23:25:36.955Z,2.73
2018-12-12T23:28:20.574Z,2.65
2018-12-12T23:30:52.999Z,2.62
2018-12-12T23:33:24.226Z,2.49
2018-12-12T23:36:00.765Z,2.55
2018-12-12T23:38:34.045Z,2.29
2018-12-12T23:41:11.721Z,2.28
2018-12-12T23:43:44.567Z,2.24
2018-12-12T23:46:20.879Z,2.37
2018-12-12T23:48:51.523Z,2.45
2018-12-12T23:51:22.061Z,2.54
2018-12-12T23:53:54.679Z,2.55
2018-12-12T23:56:26.068Z,2.56
2018-12-12T23:58:57.322Z,2.52
